Saint Martins, Missouri
Current Conditions -  °F | °C
As of 7:53 PM on Wednesday 17 Dec 2014 (Local Time) from KJEF Reporting Station
Overcast Overcast  
Wind Chill: 35°   Ceiling: 8500
Heat Index: 35°   Visibility: 10mi
Dew Point: 23°   Wind: 3mph
Humidity: 61%   Direction: 40°NE
Pressure: 30.29"   Gusts: NA
Location:  38.5621°N, 92.2945°W
Report Text: KJEF 180153Z 04003KT 10SM OVC085 02/M05 A3029 RMK AO2 SLP252 T00171050
Loading
Personal Weather Stations






























Interactive Weather Map New forecast layout! Learn more

10-Day Weather Forecast

Advertisements
Track Severe Weather on mobile